Time;durP1;ratioP1;P1;durP2;ratioP2;P2;SDS_P1;SDS_P2;PMS_P1;PMS_P2;Temp;Humidity;BMP_temperature;BMP_pressure;BME280_temperature;BME280_humidity;BME280_pressure;Samples;Min_cycle;Max_cycle;Signal;HPM_P1;HPM_P2
2020/12/03 00:01:07;;;;;;;30.45;13.77;;;;;;;-2.02;98.36;97721.91;5091768;28;20036;-75
2020/12/03 00:03:45;;;;;;;31.50;13.73;;;;;;;-1.97;98.36;97730.13;5094876;28;20032;-75
2020/12/03 00:06:21;;;;;;;25.52;11.93;;;;;;;-1.92;98.08;97738.31;5096347;28;20038;-75
2020/12/03 00:08:57;;;;;;;26.10;12.60;;;;;;;-1.97;98.18;97744.31;5096168;28;20441;-75
2020/12/03 00:11:29;;;;;;;29.48;12.57;;;;;;;-2.01;98.39;97734.28;5096278;28;20032;-75
2020/12/03 00:13:55;;;;;;;18.98;10.95;;;;;;;-2.14;97.54;97721.84;5096754;28;20027;-75
2020/12/03 00:16:21;;;;;;;17.90;9.23;;;;;;;-2.08;97.65;97730.84;5095166;28;20107;-77
2020/12/03 00:18:46;;;;;;;17.65;10.25;;;;;;;-2.11;98.21;97715.22;5097260;28;20042;-75
2020/12/03 00:21:12;;;;;;;19.65;10.70;;;;;;;-2.12;98.41;97716.25;5094163;28;20469;-76
2020/12/03 00:23:40;;;;;;;23.92;10.40;;;;;;;-2.10;98.25;97711.50;5095679;28;20032;-75
2020/12/03 00:26:06;;;;;;;26.33;12.43;;;;;;;-2.04;98.81;97702.56;5096524;28;20013;-75
2020/12/03 00:28:35;;;;;;;19.55;11.13;;;;;;;-2.17;98.37;97701.66;5095570;28;20035;-75
2020/12/03 00:31:02;;;;;;;24.15;13.27;;;;;;;-2.28;98.59;97702.38;5092921;28;20062;-75
2020/12/03 00:33:27;;;;;;;19.90;10.10;;;;;;;-2.35;98.98;97693.56;5094842;28;20032;-78
2020/12/03 00:35:54;;;;;;;22.30;11.27;;;;;;;-2.35;99.25;97690.91;5101413;28;20028;-78
2020/12/03 00:38:20;;;;;;;27.58;12.85;;;;;;;-2.32;99.30;97703.84;5102299;28;20016;-75
2020/12/03 00:40:47;;;;;;;22.40;11.98;;;;;;;-2.22;99.51;97703.34;5101471;28;20075;-75
2020/12/03 00:43:15;;;;;;;23.98;12.57;;;;;;;-2.20;99.47;97690.56;5101505;28;20453;-76
2020/12/03 00:45:41;;;;;;;19.67;10.38;;;;;;;-2.26;99.34;97681.56;5098180;28;20046;-75
2020/12/03 00:48:06;;;;;;;21.42;12.20;;;;;;;-2.43;99.34;97659.06;5097031;28;20032;-73
2020/12/03 00:50:32;;;;;;;19.90;9.73;;;;;;;-2.13;99.38;97695.88;5095224;28;20374;-76
2020/12/03 00:52:57;;;;;;;23.70;11.38;;;;;;;-2.19;99.37;97698.38;5098121;28;20111;-74
2020/12/03 00:55:22;;;;;;;21.15;10.27;;;;;;;-2.38;99.11;97699.38;5097627;28;20028;-75
2020/12/03 00:57:48;;;;;;;21.92;9.60;;;;;;;-2.17;98.93;97682.91;5097253;28;20374;-74
2020/12/03 01:00:16;;;;;;;25.50;11.50;;;;;;;-2.30;99.14;97683.03;5095534;28;20472;-77
2020/12/03 01:02:42;;;;;;;19.63;8.95;;;;;;;-2.26;99.29;97696.81;5096670;28;20028;-74
2020/12/03 01:05:10;;;;;;;18.15;10.95;;;;;;;-2.20;99.25;97690.56;5098075;28;20392;-75
2020/12/03 01:07:35;;;;;;;27.08;11.57;;;;;;;-2.09;99.12;97705.09;5097585;28;20112;-75
2020/12/03 01:10:04;;;;;;;26.13;11.65;;;;;;;-2.04;98.83;97695.38;5100009;28;20117;-74
2020/12/03 01:12:30;;;;;;;23.75;10.60;;;;;;;-2.15;98.53;97698.75;5099692;28;20053;-75
2020/12/03 01:14:55;;;;;;;18.85;10.70;;;;;;;-2.23;98.70;97693.69;5099567;28;20028;-76
2020/12/03 01:17:21;;;;;;;;;;;;;;;-2.14;99.09;97689.69;5099484;28;20028;-75
2020/12/03 01:19:46;;;;;;;25.67;10.50;;;;;;;-2.19;98.92;97673.44;5100036;28;19934;-74
2020/12/03 01:22:11;;;;;;;;;;;;;;;-2.19;99.02;97671.59;5098791;28;20032;-75
2020/12/03 01:24:40;;;;;;;24.13;10.13;;;;;;;-2.10;98.96;97669.47;5100173;28;19931;-74
2020/12/03 01:27:06;;;;;;;18.15;10.15;;;;;;;-2.16;98.62;97659.63;5098270;28;20042;-76
2020/12/03 01:29:31;;;;;;;24.00;10.48;;;;;;;-2.17;98.75;97652.63;5099976;28;20114;-76
2020/12/03 01:31:57;;;;;;;24.90;12.10;;;;;;;-2.08;98.78;97656.66;5100738;28;20487;-75
2020/12/03 01:34:22;;;;;;;18.25;10.18;;;;;;;-2.07;98.41;97641.41;5099009;28;20034;-75
2020/12/03 01:36:50;;;;;;;27.02;13.10;;;;;;;-1.98;98.18;97646.25;5099348;28;20077;-75
2020/12/03 01:39:16;;;;;;;23.02;11.32;;;;;;;-2.00;98.46;97639.44;5099194;28;20066;-76
2020/12/03 01:41:41;;;;;;;26.63;11.82;;;;;;;-2.03;98.01;97631.88;5099538;28;20065;-75
2020/12/03 01:44:07;;;;;;;21.90;10.10;;;;;;;-2.01;98.21;97632.47;5098828;28;20115;-74
2020/12/03 01:46:33;;;;;;;24.17;12.43;;;;;;;-2.08;98.41;97637.09;5100270;28;20404;-74
2020/12/03 01:49:19;;;;;;;20.13;10.82;;;;;;;-2.00;98.43;97632.25;5100378;28;20035;-75
2020/12/03 01:51:51;;;;;;;27.30;12.60;;;;;;;-1.94;98.32;97625.19;5099317;28;20028;-77
2020/12/03 01:54:19;;;;;;;16.13;8.90;;;;;;;-2.02;97.90;97628.16;5099184;28;20493;-74
2020/12/03 01:57:03;;;;;;;20.90;10.23;;;;;;;-1.97;97.89;97625.63;5099904;28;20094;-76
2020/12/03 01:59:36;;;;;;;24.67;10.93;;;;;;;-2.05;98.45;97624.06;5098899;28;20036;-75
2020/12/03 02:02:03;;;;;;;19.38;9.23;;;;;;;-1.89;98.51;97630.69;5097489;28;20091;-77
2020/12/03 02:04:28;;;;;;;19.35;10.65;;;;;;;-1.81;97.80;97614.28;5098929;28;20059;-74
2020/12/03 02:07:07;;;;;;;22.45;10.73;;;;;;;-1.87;97.63;97628.59;5099378;28;20506;-76
2020/12/03 02:09:33;;;;;;;22.02;11.63;;;;;;;-1.94;97.49;97614.47;5099250;28;20055;-75
2020/12/03 02:11:59;;;;;;;15.73;9.30;;;;;;;-2.00;97.85;97615.34;5097717;28;20023;-74
2020/12/03 02:14:25;;;;;;;22.88;11.63;;;;;;;-1.92;97.82;97620.41;5098447;28;20028;-75
2020/12/03 02:16:50;;;;;;;15.70;9.68;;;;;;;-1.90;97.70;97616.47;5099057;28;20036;-75
2020/12/03 02:19:20;;;;;;;21.95;12.23;;;;;;;-2.02;97.55;97618.25;5097247;28;20043;-76
2020/12/03 02:21:59;;;;;;;19.73;10.93;;;;;;;-2.05;97.48;97617.88;5097401;28;20024;-76
2020/12/03 02:24:33;;;;;;;17.60;10.15;;;;;;;-1.85;97.22;97615.81;5097813;28;20028;-77
2020/12/03 02:26:59;;;;;;;17.95;8.90;;;;;;;-1.95;97.34;97615.50;5096820;28;20794;-77
2020/12/03 02:29:26;;;;;;;24.27;11.55;;;;;;;-1.83;97.05;97619.06;5098269;28;20020;-76
2020/12/03 02:31:52;;;;;;;21.25;11.27;;;;;;;-1.83;96.59;97600.31;5097529;28;20077;-76
2020/12/03 02:34:18;;;;;;;20.77;10.15;;;;;;;-1.80;96.83;97599.84;5095593;28;20028;-74
2020/12/03 02:36:43;;;;;;;25.15;11.38;;;;;;;-1.93;96.92;97605.38;5096675;28;20107;-76
2020/12/03 02:39:09;;;;;;;;;;;;;;;-1.96;96.90;97606.66;5095997;28;20144;-74
2020/12/03 02:41:35;;;;;;;26.02;11.35;;;;;;;-1.99;97.39;97608.94;5096289;28;19916;-75
2020/12/03 02:44:00;;;;;;;28.95;13.20;;;;;;;-2.00;97.57;97607.31;5097110;28;20069;-75
2020/12/03 02:46:26;;;;;;;19.33;10.38;;;;;;;-1.94;97.28;97603.75;5096375;28;20016;-76
2020/12/03 02:48:51;;;;;;;;;;;;;;;-1.96;97.57;97603.97;5097925;28;20426;-76
2020/12/03 02:51:17;;;;;;;24.75;8.68;;;;;;;-1.88;97.38;97600.19;5096441;28;19912;-75
2020/12/03 02:53:43;;;;;;;27.77;11.02;;;;;;;-2.01;97.84;97581.56;5094621;28;20031;-77
2020/12/03 02:56:11;;;;;;;21.25;10.45;;;;;;;-2.01;97.95;97586.94;5095735;28;20028;-76
2020/12/03 02:58:36;;;;;;;20.17;10.90;;;;;;;-1.94;98.37;97588.47;5094182;28;20024;-75
2020/12/03 03:01:02;;;;;;;19.80;10.85;;;;;;;-1.81;97.88;97587.50;5091802;28;20031;-75
2020/12/03 03:03:27;;;;;;;;;;;;;;;-1.80;97.60;97584.59;5093989;28;20024;-75
2020/12/03 03:05:52;;;;;;;18.13;9.98;;;;;;;-2.04;97.75;97563.28;5091784;28;19912;-74
2020/12/03 03:08:18;;;;;;;24.83;11.52;;;;;;;-1.95;97.76;97586.84;5092866;28;20447;-74
2020/12/03 03:10:43;;;;;;;22.50;11.00;;;;;;;-1.98;97.83;97579.28;5091686;28;20472;-74
2020/12/03 03:13:09;;;;;;;19.60;11.27;;;;;;;-2.09;97.77;97581.88;5091030;28;20024;-74
2020/12/03 03:15:34;;;;;;;22.27;11.80;;;;;;;-1.89;98.02;97585.13;5092933;28;20073;-77
2020/12/03 03:17:59;;;;;;;26.80;11.50;;;;;;;-1.93;97.98;97578.56;5091143;28;20114;-77
2020/12/03 03:20:25;;;;;;;19.88;11.77;;;;;;;-1.88;97.35;97594.81;5090798;28;20019;-74
2020/12/03 03:22:50;;;;;;;18.52;9.70;;;;;;;-1.85;97.46;97575.59;5090843;28;20032;-76
2020/12/03 03:25:16;;;;;;;26.38;11.60;;;;;;;-1.88;97.48;97578.75;5091851;28;20056;-74
2020/12/03 03:27:42;;;;;;;27.27;10.63;;;;;;;-2.02;97.95;97575.41;5092559;28;20024;-74
2020/12/03 03:30:09;;;;;;;20.98;11.00;;;;;;;-1.81;97.94;97584.81;5090350;28;20035;-74
2020/12/03 03:32:35;;;;;;;24.55;11.98;;;;;;;-1.92;98.05;97566.81;5092779;28;20043;-74
2020/12/03 03:35:00;;;;;;;24.48;12.35;;;;;;;-1.91;97.61;97568.47;5110622;28;20024;-74
2020/12/03 03:37:26;;;;;;;;;;;;;;;-1.99;97.77;97580.31;5111065;28;20036;-74
2020/12/03 03:39:52;;;;;;;20.33;10.63;;;;;;;-2.08;98.05;97570.94;5111014;28;19926;-74
2020/12/03 03:42:17;;;;;;;21.70;10.45;;;;;;;-2.09;98.22;97569.28;5110960;28;20055;-74
2020/12/03 03:44:43;;;;;;;21.30;9.80;;;;;;;-2.15;98.32;97572.88;5111016;28;20035;-75
2020/12/03 03:47:08;;;;;;;21.98;9.77;;;;;;;-2.18;98.54;97566.09;5110796;28;20068;-74
2020/12/03 03:49:34;;;;;;;21.33;9.80;;;;;;;-2.23;98.78;97544.56;5112412;28;20408;-74
2020/12/03 03:51:59;;;;;;;18.83;8.80;;;;;;;-2.20;98.93;97556.66;5108590;28;20490;-74
2020/12/03 03:54:24;;;;;;;17.73;10.05;;;;;;;-2.16;98.84;97555.97;5090454;28;20526;-74
2020/12/03 03:56:50;;;;;;;12.55;8.50;;;;;;;-2.11;98.81;97565.22;5100058;28;20023;-76
2020/12/03 03:59:15;;;;;;;18.40;11.18;;;;;;;-2.12;98.51;97561.72;5111270;28;20126;-74
2020/12/03 04:01:41;;;;;;;20.50;10.35;;;;;;;-2.13;98.44;97537.84;5111340;28;20035;-76
2020/12/03 04:04:06;;;;;;;21.58;11.40;;;;;;;-2.06;98.28;97543.91;5110093;28;20065;-74
2020/12/03 04:06:32;;;;;;;22.40;10.30;;;;;;;-1.99;98.22;97544.66;5111564;28;20112;-75
2020/12/03 04:08:57;;;;;;;16.80;10.00;;;;;;;-1.86;98.00;97557.88;5101349;28;20473;-75
2020/12/03 04:11:22;;;;;;;24.52;10.82;;;;;;;-1.88;97.60;97557.31;5091167;28;20477;-75
2020/12/03 04:13:48;;;;;;;;;;;;;;;-1.90;97.76;97562.06;5091834;28;20081;-74
2020/12/03 04:16:13;;;;;;;15.00;8.15;;;;;;;-2.10;97.89;97548.94;5091439;28;19923;-75
2020/12/03 04:18:40;;;;;;;19.88;9.40;;;;;;;-1.90;97.85;97562.06;5089755;28;20024;-74
2020/12/03 04:21:07;;;;;;;19.17;9.48;;;;;;;-1.96;97.70;97562.94;5091068;28;20101;-75
2020/12/03 04:23:33;;;;;;;17.63;9.73;;;;;;;-2.02;97.60;97563.84;5090325;28;20047;-74
2020/12/03 04:25:59;;;;;;;15.98;8.90;;;;;;;-2.16;97.74;97533.72;5091116;28;20504;-74
2020/12/03 04:28:25;;;;;;;24.77;11.20;;;;;;;-2.08;97.89;97560.22;5089301;28;20024;-75
2020/12/03 04:30:50;;;;;;;14.80;9.57;;;;;;;-2.09;97.98;97565.78;5089314;28;20362;-74
2020/12/03 04:33:15;;;;;;;;;;;;;;;-2.03;98.17;97552.31;5091283;28;20032;-74
2020/12/03 04:35:41;;;;;;;15.20;8.98;;;;;;;-2.09;98.30;97547.03;5089126;28;19935;-75
2020/12/03 04:38:07;;;;;;;;;;;;;;;-2.00;98.47;97548.38;5088884;28;20028;-79
2020/12/03 04:40:36;;;;;;;17.40;9.75;;;;;;;-2.05;97.94;97548.25;5090567;28;19920;-76
2020/12/03 04:43:28;;;;;;;18.95;9.48;;;;;;;-1.95;98.28;97554.72;5090698;28;20404;-74
2020/12/03 04:46:01;;;;;;;13.15;8.63;;;;;;;-2.11;98.23;97546.47;5092814;28;20021;-75
2020/12/03 04:48:38;;;;;;;15.70;10.15;;;;;;;-1.92;97.88;97550.75;5091002;28;20032;-75
2020/12/03 04:51:40;;;;;;;17.30;8.75;;;;;;;-1.92;97.80;97554.25;5094172;28;20028;-75
2020/12/03 04:54:36;;;;;;;21.58;10.68;;;;;;;-1.96;98.15;97552.25;5092400;28;20032;-75
2020/12/03 04:57:11;;;;;;;16.02;9.82;;;;;;;-1.93;98.05;97557.16;5093761;28;20035;-75
2020/12/03 05:00:03;;;;;;;34.03;15.73;;;;;;;-2.02;97.93;97542.44;5094000;28;20035;-74
2020/12/03 05:03:09;;;;;;;19.33;10.10;;;;;;;-2.05;97.92;97545.56;5094453;28;20450;-74
2020/12/03 05:05:54;;;;;;;17.15;9.55;;;;;;;-1.93;98.25;97554.47;5084522;28;20127;-76
2020/12/03 05:08:50;;;;;;;22.55;9.95;;;;;;;-1.96;98.14;97547.69;5092491;28;20111;-75
2020/12/03 05:11:28;;;;;;;19.33;9.90;;;;;;;-1.91;98.27;97555.06;5090127;28;20093;-75
2020/12/03 05:13:59;;;;;;;26.58;10.82;;;;;;;-1.94;98.00;97568.94;5093566;28;20032;-75
2020/12/03 05:16:34;;;;;;;25.00;11.80;;;;;;;-1.91;98.37;97568.47;5093804;28;20039;-75
2020/12/03 05:19:12;;;;;;;21.40;11.30;;;;;;;-1.90;97.61;97557.50;5093159;28;20028;-76
2020/12/03 05:21:38;;;;;;;18.50;10.75;;;;;;;-1.88;98.13;97559.97;5091932;28;20024;-74
2020/12/03 05:24:03;;;;;;;17.40;10.70;;;;;;;-1.90;97.86;97554.00;5091608;28;20042;-76
2020/12/03 05:26:35;;;;;;;20.88;11.35;;;;;;;-1.91;98.15;97549.72;5093473;28;20024;-77
2020/12/03 05:29:05;;;;;;;19.13;11.45;;;;;;;-1.90;98.43;97554.00;5092209;28;20095;-74
2020/12/03 05:31:39;;;;;;;21.08;9.90;;;;;;;-1.75;98.09;97565.13;5093566;28;20024;-75
2020/12/03 05:34:18;;;;;;;20.17;10.90;;;;;;;-1.76;97.62;97552.81;5093639;28;20532;-77
2020/12/03 05:36:53;;;;;;;18.70;10.60;;;;;;;-1.77;97.64;97557.34;5093481;28;20385;-76
2020/12/03 05:39:24;;;;;;;23.20;12.05;;;;;;;-1.77;97.67;97553.84;5093479;28;20558;-74
2020/12/03 05:41:56;;;;;;;22.35;11.32;;;;;;;-1.70;97.69;97563.44;5091807;28;20058;-74
2020/12/03 05:44:30;;;;;;;21.92;11.23;;;;;;;-1.75;97.29;97563.28;5092790;28;20039;-74
2020/12/03 05:46:56;;;;;;;17.90;11.05;;;;;;;-1.80;96.95;97548.94;5093710;28;20012;-74
2020/12/03 05:49:25;;;;;;;25.33;10.32;;;;;;;-1.75;97.16;97560.59;5093436;28;20552;-74
2020/12/03 05:52:15;;;;;;;23.38;10.88;;;;;;;-1.76;97.54;97566.22;5093406;28;20012;-75
2020/12/03 05:54:59;;;;;;;22.40;9.75;;;;;;;-1.75;97.43;97576.69;5095637;28;20028;-74
2020/12/03 05:57:52;;;;;;;20.98;11.40;;;;;;;-1.66;97.47;97569.16;5102138;28;20036;-75
2020/12/03 06:00:26;;;;;;;22.90;10.65;;;;;;;-1.71;96.97;97569.00;5097547;28;20127;-76
2020/12/03 06:03:27;;;;;;;18.92;12.13;;;;;;;-1.71;96.87;97553.75;5103891;28;20384;-77
2020/12/03 06:06:13;;;;;;;20.38;10.60;;;;;;;-1.78;96.87;97565.59;5063864;28;20463;-74
2020/12/03 06:09:05;;;;;;;31.30;12.40;;;;;;;-1.81;96.67;97558.00;5101226;28;20396;-75
2020/12/03 06:11:47;;;;;;;18.75;9.77;;;;;;;-1.85;96.53;97541.56;5101668;28;20059;-75
2020/12/03 06:14:49;;;;;;;21.90;10.55;;;;;;;-1.86;97.00;97536.44;5100588;28;20407;-76
2020/12/03 06:17:31;;;;;;;25.13;10.80;;;;;;;-1.81;96.62;97540.06;5102697;28;20114;-76
2020/12/03 06:20:18;;;;;;;21.48;10.85;;;;;;;-1.40;97.68;97560.72;5102359;28;20028;-75
2020/12/03 06:23:08;;;;;;;18.30;10.75;;;;;;;-1.60;96.24;97565.56;5099305;28;20044;-76
2020/12/03 06:25:49;;;;;;;21.75;10.15;;;;;;;-1.55;96.20;97563.00;5097663;28;20028;-76
2020/12/03 06:28:29;;;;;;;29.00;11.88;;;;;;;-1.42;96.44;97573.56;5099262;28;20034;-75
2020/12/03 06:31:20;;;;;;;16.60;10.63;;;;;;;-1.55;96.18;97570.22;5100381;28;20015;-76
2020/12/03 06:33:51;;;;;;;19.55;9.95;;;;;;;-1.63;95.87;97563.34;5104167;28;20552;-75
2020/12/03 06:36:26;;;;;;;18.23;11.07;;;;;;;-1.66;96.13;97574.53;5103637;28;20131;-75
2020/12/03 06:39:21;;;;;;;21.90;10.70;;;;;;;-1.54;96.11;97572.72;5104168;28;20045;-75
2020/12/03 06:41:54;;;;;;;24.88;10.73;;;;;;;-1.58;95.70;97568.00;5101002;28;20081;-75
2020/12/03 06:44:27;;;;;;;25.77;12.18;;;;;;;-1.55;95.69;97568.38;5108475;28;20380;-75
2020/12/03 06:47:14;;;;;;;20.85;9.60;;;;;;;-1.39;95.34;97562.38;5097246;28;20024;-75
2020/12/03 06:49:42;;;;;;;24.35;11.82;;;;;;;-1.33;95.35;97568.69;5103684;28;20066;-76
2020/12/03 06:52:07;;;;;;;20.55;10.88;;;;;;;-1.36;94.09;97569.97;5109377;28;20027;-77
2020/12/03 06:54:46;;;;;;;24.10;11.73;;;;;;;-1.59;94.69;97559.16;5110995;28;20031;-77
2020/12/03 06:58:05;;;;;;;18.52;9.52;;;;;;;-1.38;94.48;97569.34;5111522;28;20024;-77
2020/12/03 07:00:49;;;;;;;22.25;9.70;;;;;;;-1.42;93.77;97565.50;5033772;28;20437;-75
2020/12/03 07:03:32;;;;;;;21.90;11.00;;;;;;;-1.42;94.17;97573.56;5120199;27;20036;-76
2020/12/03 07:06:16;;;;;;;15.05;8.20;;;;;;;-1.42;94.30;97580.78;5111353;28;20032;-74
2020/12/03 07:09:00;;;;;;;20.40;10.35;;;;;;;-1.39;94.08;97591.88;5109489;28;20044;-75
2020/12/03 07:12:00;;;;;;;12.68;8.18;;;;;;;-1.33;93.74;97590.94;5089235;28;20028;-74
2020/12/03 07:15:08;;;;;;;20.42;10.73;;;;;;;-1.26;93.55;97577.44;5089305;28;20035;-74
2020/12/03 07:18:20;;;;;;;14.57;9.98;;;;;;;-1.23;93.69;97583.16;5102275;28;20031;-74
2020/12/03 07:20:48;;;;;;;24.20;10.85;;;;;;;-1.27;93.64;97590.03;5110733;28;20384;-83
2020/12/03 07:23:30;;;;;;;18.60;11.07;;;;;;;-1.24;93.38;97578.03;5109848;28;20046;-76
2020/12/03 07:25:57;;;;;;;20.30;11.10;;;;;;;-1.17;93.70;97590.31;5109271;28;20114;-77
2020/12/03 07:28:35;;;;;;;15.77;8.82;;;;;;;-1.13;92.89;97586.09;5094880;28;20051;-77
2020/12/03 07:31:03;;;;;;;17.58;10.57;;;;;;;-1.15;92.22;97582.84;5090450;28;20101;-75
2020/12/03 07:34:03;;;;;;;22.38;11.02;;;;;;;-0.93;91.67;97584.97;5090012;28;20032;-76
2020/12/03 07:36:44;;;;;;;20.33;10.13;;;;;;;-1.02;91.30;97586.34;5089577;28;20028;-76
2020/12/03 07:39:20;;;;;;;25.35;10.77;;;;;;;-1.13;91.49;97591.44;5106529;28;20034;-75
2020/12/03 07:41:53;;;;;;;21.05;11.50;;;;;;;-1.19;92.19;97581.66;5109379;28;20092;-77
2020/12/03 07:44:34;;;;;;;26.13;11.57;;;;;;;-0.99;92.49;97586.72;5110308;28;20027;-76
2020/12/03 07:47:17;;;;;;;13.88;9.23;;;;;;;-0.90;92.43;97589.88;5089167;28;20013;-75
2020/12/03 07:49:46;;;;;;;27.85;12.05;;;;;;;-1.00;92.20;97584.28;5090463;28;20029;-76
2020/12/03 07:52:29;;;;;;;23.92;11.88;;;;;;;-0.63;93.02;97586.50;5090509;28;20036;-76
2020/12/03 07:55:23;;;;;;;19.77;10.43;;;;;;;0.47;92.31;97581.03;5090633;28;20035;-77
2020/12/03 07:57:57;;;;;;;22.30;10.73;;;;;;;0.09;86.81;97584.34;5086193;28;20044;-83
2020/12/03 08:00:45;;;;;;;23.52;12.65;;;;;;;-0.72;89.52;97579.06;5089776;28;20493;-76
2020/12/03 08:03:40;;;;;;;22.50;13.10;;;;;;;-0.97;90.27;97573.88;5088841;28;20031;-76
2020/12/03 08:06:09;;;;;;;26.10;12.80;;;;;;;-0.94;90.82;97575.28;5089659;28;20040;-76
2020/12/03 08:08:37;;;;;;;19.77;9.90;;;;;;;-0.97;90.64;97570.38;5088382;28;20028;-76
2020/12/03 08:11:04;;;;;;;21.15;11.13;;;;;;;-1.09;90.58;97560.44;5090072;28;20028;-76
2020/12/03 08:13:30;;;;;;;21.95;10.48;;;;;;;-0.88;89.65;97577.88;5090227;28;20465;-76
2020/12/03 08:16:03;;;;;;;23.48;12.52;;;;;;;-0.84;90.19;97570.16;5088479;28;20028;-76
2020/12/03 08:18:57;;;;;;;18.70;10.68;;;;;;;-0.76;90.19;97576.00;5088400;28;20040;-76
2020/12/03 08:21:36;;;;;;;15.68;9.43;;;;;;;-0.55;89.47;97577.28;5088139;28;20021;-77
2020/12/03 08:24:02;;;;;;;24.10;12.75;;;;;;;-0.49;89.42;97581.72;5091201;28;20032;-76
2020/12/03 08:26:28;;;;;;;27.27;13.65;;;;;;;-0.42;88.54;97578.91;5093848;28;20004;-75
2020/12/03 08:28:53;;;;;;;20.60;12.07;;;;;;;-0.59;88.59;97581.47;5093399;28;20127;-75
2020/12/03 08:31:19;;;;;;;22.23;12.18;;;;;;;-0.63;89.43;97569.59;5092098;28;20028;-75
2020/12/03 08:33:50;;;;;;;;;;;;;;;-0.62;89.51;97572.03;5093288;28;20024;-75
2020/12/03 08:36:16;;;;;;;23.88;11.52;;;;;;;-0.64;88.99;97541.09;5091060;28;19916;-74
2020/12/03 08:38:46;;;;;;;26.02;12.50;;;;;;;-0.57;88.57;97557.91;5098754;28;20015;-74
2020/12/03 08:41:15;;;;;;;23.23;11.65;;;;;;;-0.56;88.16;97559.53;5113294;28;20035;-75
2020/12/03 08:43:48;;;;;;;21.92;11.23;;;;;;;-0.53;88.23;97556.38;5112483;28;20020;-75
2020/12/03 08:46:20;;;;;;;22.75;12.27;;;;;;;-0.46;87.96;97550.88;5098917;28;20042;-75
2020/12/03 08:48:46;;;;;;;26.35;13.90;;;;;;;-0.35;87.24;97536.63;5092259;28;20024;-77
2020/12/03 08:51:13;;;;;;;21.70;12.30;;;;;;;-0.19;86.71;97555.50;5095654;28;20032;-74
2020/12/03 08:53:44;;;;;;;23.63;12.52;;;;;;;-0.26;86.26;97554.84;5097240;28;20031;-77
2020/12/03 08:56:15;;;;;;;22.02;11.57;;;;;;;-0.08;87.10;97561.91;5098914;28;20065;-86
2020/12/03 08:59:02;;;;;;;21.70;11.52;;;;;;;-0.01;87.20;97566.13;5102881;28;20066;-75
2020/12/03 09:01:45;;;;;;;23.85;11.75;;;;;;;0.10;85.47;97572.50;5096624;28;20032;-76
2020/12/03 09:04:11;;;;;;;19.73;10.98;;;;;;;0.16;85.23;97566.16;5097091;28;20388;-75
2020/12/03 09:06:48;;;;;;;22.67;12.07;;;;;;;0.00;84.42;97562.34;5100973;28;20026;-75
2020/12/03 09:09:23;;;;;;;20.48;11.05;;;;;;;0.24;84.46;97556.91;5103428;28;20142;-74
2020/12/03 09:11:50;;;;;;;24.30;12.27;;;;;;;0.17;84.19;97575.06;5099029;28;20453;-76
2020/12/03 09:14:16;;;;;;;23.38;12.40;;;;;;;0.02;84.42;97580.13;5102795;28;20008;-76
2020/12/03 09:16:48;;;;;;;22.92;12.13;;;;;;;-0.09;85.29;97582.59;5102338;28;20074;-76
2020/12/03 09:19:27;;;;;;;24.60;12.07;;;;;;;0.08;85.48;97577.31;5102080;28;20020;-76
2020/12/03 09:21:53;;;;;;;21.20;11.55;;;;;;;-0.12;85.12;97568.81;5100082;28;20054;-75
2020/12/03 09:24:24;;;;;;;23.27;10.23;;;;;;;-0.08;84.71;97551.16;5099526;28;20024;-76
2020/12/03 09:26:50;;;;;;;22.58;13.23;;;;;;;0.13;85.40;97560.44;5100744;28;20519;-76
2020/12/03 09:29:17;;;;;;;20.10;11.43;;;;;;;0.05;85.04;97577.78;5099416;28;20042;-75
2020/12/03 09:31:43;;;;;;;26.33;12.75;;;;;;;-0.16;85.49;97586.50;5102144;28;20024;-76
2020/12/03 09:34:09;;;;;;;28.17;14.18;;;;;;;-0.31;85.84;97570.84;5098644;28;20434;-76
2020/12/03 09:36:36;;;;;;;24.98;13.63;;;;;;;-0.27;85.76;97572.00;5099853;28;20513;-76
2020/12/03 09:39:04;;;;;;;20.63;10.75;;;;;;;-0.07;85.43;97567.06;5098368;28;20040;-75
2020/12/03 09:41:29;;;;;;;27.30;14.60;;;;;;;-0.13;85.80;97584.16;5096858;28;20081;-76
2020/12/03 09:43:59;;;;;;;21.27;12.63;;;;;;;-0.06;84.81;97559.81;5099188;28;20024;-76
2020/12/03 09:46:29;;;;;;;23.83;13.20;;;;;;;0.15;84.65;97569.09;5097889;28;20027;-75
2020/12/03 09:48:55;;;;;;;20.75;11.18;;;;;;;0.35;83.97;97573.00;5099943;28;20024;-76
2020/12/03 09:51:24;;;;;;;21.90;12.07;;;;;;;0.28;83.17;97576.91;5097677;27;20022;-74
2020/12/03 09:53:51;;;;;;;18.77;12.20;;;;;;;0.17;83.48;97572.38;5099343;28;20016;-75
2020/12/03 09:56:20;;;;;;;16.90;10.30;;;;;;;0.32;83.94;97573.47;5101395;28;20027;-75
2020/12/03 09:58:46;;;;;;;19.77;10.88;;;;;;;0.30;83.54;97569.41;5093521;28;20051;-76
2020/12/03 10:01:14;;;;;;;19.75;11.48;;;;;;;-0.02;83.64;97574.41;5090179;28;20028;-75
2020/12/03 10:04:28;;;;;;;22.45;10.73;;;;;;;0.06;83.06;97565.16;5091226;28;20150;-74
2020/12/03 10:07:43;;;;;;;25.25;11.70;;;;;;;-0.02;83.79;97559.09;5087665;28;20028;-74
2020/12/03 10:10:43;;;;;;;19.30;11.68;;;;;;;0.26;83.00;97544.03;5045159;28;20136;-74
2020/12/03 10:13:30;;;;;;;14.10;9.15;;;;;;;0.42;84.32;97538.72;5091816;28;20063;-75
2020/12/03 10:16:05;;;;;;;25.23;10.38;;;;;;;0.24;81.46;97522.78;5094013;28;20070;-74
2020/12/03 10:18:39;;;;;;;20.20;11.25;;;;;;;0.34;81.28;97516.78;5099948;28;20081;-75
2020/12/03 10:21:05;;;;;;;17.70;10.50;;;;;;;0.33;80.99;97509.75;5097848;28;20020;-75
2020/12/03 10:23:31;;;;;;;17.30;10.15;;;;;;;0.43;80.53;97505.41;5091487;28;20130;-75
2020/12/03 10:26:16;;;;;;;;;;;;;;;0.32;79.85;97500.88;5090463;28;20062;-74
2020/12/03 10:29:14;;;;;;;18.67;10.60;;;;;;;0.42;80.63;97500.25;5095231;28;19923;-76
2020/12/03 10:31:42;;;;;;;20.85;10.50;;;;;;;0.54;80.93;97496.44;5055943;28;20047;-75
2020/12/03 10:34:12;;;;;;;22.50;10.20;;;;;;;0.44;81.17;97500.81;5089648;28;20460;-76
2020/12/03 10:36:50;;;;;;;19.85;9.65;;;;;;;0.35;79.85;97502.25;5092411;28;20028;-76
2020/12/03 10:39:16;;;;;;;17.13;10.10;;;;;;;0.24;80.20;97481.63;5091986;27;20694;-76
2020/12/03 10:41:46;;;;;;;19.90;11.82;;;;;;;0.42;81.42;97492.16;5099876;28;20047;-75
2020/12/03 10:44:17;;;;;;;19.75;10.68;;;;;;;0.52;80.39;97479.72;5115283;28;20024;-76
2020/12/03 10:46:50;;;;;;;23.15;10.90;;;;;;;0.29;79.83;97481.72;5102370;28;20499;-76
2020/12/03 10:49:19;;;;;;;18.05;10.48;;;;;;;0.44;80.59;97474.72;5091818;28;20078;-76
2020/12/03 10:51:45;;;;;;;19.27;11.48;;;;;;;0.67;80.02;97467.56;5090452;28;20045;-76
2020/12/03 10:54:16;;;;;;;17.52;10.52;;;;;;;0.72;79.62;97473.84;5109876;28;20086;-76
2020/12/03 10:56:52;;;;;;;19.15;9.60;;;;;;;0.75;79.88;97480.63;5111354;28;20024;-76
2020/12/03 10:59:24;;;;;;;20.10;11.85;;;;;;;0.63;80.69;97486.06;5111955;28;20058;-74
2020/12/03 11:01:52;;;;;;;17.83;10.40;;;;;;;0.39;80.60;97484.59;5097501;28;20066;-76
2020/12/03 11:04:18;;;;;;;18.88;10.13;;;;;;;0.35;80.70;97472.69;5100977;28;20028;-75
2020/12/03 11:06:47;;;;;;;23.92;10.70;;;;;;;0.46;80.00;97487.94;5106130;28;20035;-77
2020/12/03 11:09:30;;;;;;;20.75;10.40;;;;;;;0.27;80.63;97473.09;5092652;28;20056;-75
2020/12/03 11:11:56;;;;;;;19.92;10.93;;;;;;;0.12;81.39;97472.81;5090647;28;20050;-75
2020/12/03 11:14:24;;;;;;;19.17;11.15;;;;;;;0.07;81.37;97472.69;5090177;28;20048;-75
2020/12/03 11:17:00;;;;;;;17.13;9.65;;;;;;;0.14;81.79;97478.75;5090795;28;20424;-76
2020/12/03 11:19:27;;;;;;;14.45;9.43;;;;;;;0.01;81.66;97474.47;5097664;28;20024;-76
2020/12/03 11:22:10;;;;;;;20.55;10.52;;;;;;;0.06;80.97;97455.78;5098542;28;20052;-76
2020/12/03 11:24:59;;;;;;;19.75;10.48;;;;;;;0.32;80.38;97475.84;5091525;28;20039;-75
2020/12/03 11:27:28;;;;;;;20.00;10.63;;;;;;;0.36;79.53;97466.25;5089620;28;20157;-75
2020/12/03 11:29:53;;;;;;;18.10;10.45;;;;;;;0.29;80.93;97465.56;5093529;28;20157;-75
2020/12/03 11:32:25;;;;;;;16.52;9.05;;;;;;;0.34;81.05;97469.19;5088788;28;20027;-75
2020/12/03 11:34:54;;;;;;;20.20;9.95;;;;;;;0.28;81.86;97458.59;5097988;28;20024;-76
2020/12/03 11:37:26;;;;;;;21.63;11.50;;;;;;;0.36;81.19;97455.50;5102360;28;20027;-75
2020/12/03 11:40:17;;;;;;;24.35;12.45;;;;;;;0.33;81.37;97437.16;5109600;28;20024;-75
2020/12/03 11:43:05;;;;;;;21.83;11.15;;;;;;;0.41;80.86;97431.34;5087089;28;20112;-76
2020/12/03 11:48:44;;;;;;;20.50;9.38;;;;;;;0.50;81.24;97430.72;5088818;28;20073;-77
2020/12/03 11:51:25;;;;;;;22.60;11.70;;;;;;;0.59;81.33;97416.88;5102636;28;20115;-76
2020/12/03 11:54:14;;;;;;;21.98;12.05;;;;;;;0.47;81.28;97404.31;5088329;28;20115;-76